Domingo, 21 de Diciembre del 2014

portal contactenos mapa del sitio buscar Revisar Correo Corporativo

|Reporte METAR por Reginal » ||Reporte TAF por Reginal » ||Reporte METAR, TAF y SIN覲TICO »

Reporte METAR por Regional

|| La Paz || Santa Cruz || Cochabamba || Beni - Pando ||

Informe METAR emitido cada hora.

Regional La Paz

ESTACIÓN

AEROPUERTO

HORA UTC

DESCRIPCIÓN

SLRY

Reyes

14-18S|67-21W

19:00

SLRY 211900Z 32004KT 9999 SCT013 BKN017 BKN070 26/24 Q1008 A2978 RETS HR89 RWY WET INOP=

SLRQ

Rurrenabaque

14-25S|67-29W

19:00

SLRQ 211900Z 36014KT 9999 BKN017 BKN070 27/25 Q1007 A2974 HR86=

SLAP

Apolo

14-44S|68-24W

-

Mensaje no Recibido

SLSB

San Borja

14-51S|66-44W

19:00

SLSB 211900Z 34015G25KT 9999 SCT017 BKN080 27/24 Q1006 A2971 HR83 RWY WET OPR C210=

SLLP

Internaci贸nal El Alto

16-08S|68-10W

19:00

SLLP 211900Z 29007KT 220V030 9999 FEW017 FEW020CB BKN200 18/M06 Q1033 A3051 624.8 P0783 CB/DIST N/NE AC HR19 NOSIG=

SLCN

Chara帽a

17-35S|69-25W

-

Mensaje no Recibido

SLOR

Oruro

17-57S|67-04W

19:00

SLOR 211900Z 20004KT 9999 FEW017 BKN200 20/04 Q1030 A3044 653.0 HR36=

SLUY

Uyuni

20-27S|62-52W

19:00

SLUY 211900Z 01015KT 9999 FEW015 BKN200 18/M03 Q1029 A3041 655.3 AC HR31=

Regional Cochabamba

ESTACIÓN

AEROPUERTO

HORA UTC

DESCRIPCIÓN

SLCB

Cochabamba

17-25S|66-10W

19:00

SLCB 211900Z 27006KT 9999 FEW027 FEW030CB SCT200 30/M05 Q1016 A3002 744.8 HR10 AC CB N NOSIG=

SLSU

Sucre

19-00S|65-17W

19:00

SLSU 211900Z 05011KT 9999 FEW023 25/04 Q1021 A3015 HR26 CI=

SLPO

Potos铆

19-32S|65-43W

12:00

SLPO 211200Z 24010KT 9999 NSC 06/02 Q1034 A3053 HR71=

SLAG

Monteagudo

19-49S|63-58W

17:00

SLAG 201700Z 00000KT 9999 NSC 30/22 Q1004 A2975 HR61 RWY CLSD=

SLVM

Villamontes

21-15S|63-24W

17:00

SLVM 211700Z 18022G35KT 9999 BKN017 BKN200 27/20 Q1006 A2971 HR68=

SLTJ

Tarija

21-33S|64-42W

19:00

SLTJ 211900Z 13014KT 9999 SCT033 SCT200 25/16 Q1010 A2984 HR57=

SLYA

Yacuiba

21-57S|63-39W

20:00

SLYA 212000Z 18010KT 9999 FEW020 SCT030 BKN070 25/19 Q1008 A2977 HR73 CI=

SLBJ

Bermejo

22-46S|64-18W

17:00

SLBJ 201700Z 00000KT 9999 NSC 34/25 Q0997 A2944 HR60 CI=

Regional Santa Cruz

ESTACIÓN

AEROPUERTO

HORA UTC

DESCRIPCIÓN

SLAS

Ascenci贸n de Guarayos

15-55S|63-09W

19:00

SLAS 211900Z 31008KT 9999 BKN017 BKN200 30/25 Q1007 A2976 HR75 RWY WET OPR=

SLCP

Concepci贸n

16-08S|62-01W

19:00

SLCP 211900Z 34012KT 9999 BKN015 28/23 Q1010 A2983 HR72 RWY NML =

SLJV

San Javier

16-16S|62-28W

19:00

SLJV 211900Z 34013KT 9999 BKN015 BKN070 27/24 Q1006 A2971 HR85 RWY HUM OPR=

SLTI

San Mat铆as

16-20S|58-24W

19:00

SLTI 211900Z 36015KT 9999 SCT017 35/24 Q1011 A2985 HR54 RWY NML =

SLSI

San Ignacio de Velasco

16-23S|60-57W

19:00

SLSI 211900Z 33010KT 9999 BKN017 28/23 Q1006 A2971 HR72 RWY NML =

SLVR

Internaci贸nal Viru Viru

17-38S|63-08W

19:00

SLVR 211900Z 32022G34KT 9999 SCT010 BKN020 29/22 Q1006 A2971 HR68 SH/N TEMPO SHRA=

SLET

El Trompillo

17-48S|63-10W

19:00

SLET 211900Z 31024G36KT 9999 SCT012 BKN017 FEW027CB 26/23 Q1005 A2968 HR85 CB/SE AC TEMPO SHRA=

SLJE

San Jos茅 de Chiquitos

17-49S|60-44W

18:00

SLJE 211800Z 00000KT 9999 SCT017 OVC070 29/25 Q1011 A2985 HR71 RWY HUM OPR C206=

SLRB

Robor茅

18-19S|59-45W

19:00

SLRB 211900Z 36020G30KT 9999 BKN020 31/23 Q1007 A2974 HR64 RWY NML=

SLVG

Valle Grande

18-28S|64-05W

18:00

SLVG 211800Z 35007KT 9999 TS SCT027 FEW030CB BKN200 25/16 Q1018 A3006 HR54 TS/CB S RWY NML=

SLPS

Puerto Su谩rez

18-58S|57-49W

19:00

SLPS 211900Z 00000KT 9999 SCT017 FEW027CB BKN070 OVC200 32/26 Q1005 A2968 HR70 CB/SH W/N=

SLCA

Camiri

20-00S|63-31W

19:00

SLCA 211900Z 18018KT 9999 BKN036 FEW040CB BKN070 30/19 Q1008 A2977 HR54 CB SW/N RWY NML=

Regional Beni

ESTACIÓN

AEROPUERTO

HORA UTC

DESCRIPCIÓN

SLGM

Guayaramer铆n

10-49S|65-20W

19:00

SLGM 211900Z 34010KT 8000 VCSH SCT017 FEW020CB BKN200 27/25 Q1007 A2976 HR89 RETS CB/SH E/SE/SW=

SLRI

Riberalta

11-00S|66-04W

19:00

SLRI 211900Z 34008KT 6000 TS VCSH FEW008 BKN017 FEW020CB BKN200 29/24 Q1008 A2977 HR73 CB/SH N/NE/W/NW TS W/NW=

SLCO

Cobija

11-02S|68-47W

19:00

SLCO 211900Z 34010KT 9999 FEW020 BKN080 BKN200 30/24 Q1008 A2978 981.2 HR70=

SLJO

San Joaquin

13-03S|64-39W

19:00

SLJO 211900Z 32012KT 5000 -SHRA SCT017 FEW020CB BKN200 26/25 Q1007 A2976 HR97 CB W/NW RWY HUM OPR=

SLMG

San Magdalena

13-15S|64-03W

19:00

SLMG 211900Z 32012KT 8000 VCSH SCT017 FEW023CB 32/24 Q1007 A2975 HR64 CB/SH SE/S/W RWY NML=

SLRA

San Ram贸n

13-15S|64-36W

19:00

SLRA 211900Z 32014KT 7000 VCSH ST017 FEW020CB BKN200 29/25 Q1007 A2975 HR79 CB/SH N/NE/S/NW RWY HUM OPR=

SLBU

Baures

13-39S|63-42W

19:00

SLBU 211900Z 35015KT 9999 BKN017 33/24 Q1006 A2972 HR59 RWY NML=

SLSA

Santa Ana de Yacuma

13-45S|65-26W

19:00

SLSA 211900Z 32010G20KT 9999 SCT017 BKN200 31/24 Q1006 A2971 HR63=

SLSR

Santa Rosa

14-04S|66-47W

19:00

SLSR 211900Z 35015G25KT 9999 SCT017 FEW023CB BKN200 29/23 Q1005 A2968 HR72 CB S/SW/W RWY OPR C210=

SLTR

Trinidad

14-49S|64-54W

19:00

SLTR 211900Z 25006KT 230V300 9999 FEW015 FEW020CB BKN200 28/26 Q1006 A2971 987.6 HR86 RESHRA CB N/SE NOSIG=

SLSM

San Ignacio de Moxos

14-57S|65-38W

19:00

SLSM 211900Z 32010KT 6000 VCSH BKN015 FEW023CB BKN080 28/25 Q1005 A2967 HR85 CB/SH N/NE/W/NW RWY OPR C206=